Time;durP1;ratioP1;P1;durP2;ratioP2;P2;SDS_P1;SDS_P2;PMS_P1;PMS_P2;Temp;Humidity;BMP_temperature;BMP_pressure;BME280_temperature;BME280_humidity;BME280_pressure;Samples;Min_cycle;Max_cycle;Signal;HPM_P1;HPM_P2
2022/08/26 00:00:32;;;;;;;0.20;0.20;;;25.20;70.90;;;;;;5134257;28;20027;-91
2022/08/26 00:02:59;;;;;;;0.10;0.05;;;25.20;70.40;;;;;;5134181;28;20019;-90
2022/08/26 00:05:25;;;;;;;0.15;0.10;;;25.20;70.40;;;;;;5134102;28;20126;-91
2022/08/26 00:07:52;;;;;;;0.10;0.10;;;25.20;70.40;;;;;;5134331;28;20027;-90
2022/08/26 00:10:18;;;;;;;0.00;0.00;;;25.20;70.50;;;;;;5134283;28;20042;-90
2022/08/26 00:12:44;;;;;;;0.00;0.00;;;25.20;70.80;;;;;;5134255;28;20023;-90
2022/08/26 00:15:12;;;;;;;0.28;0.28;;;25.10;70.90;;;;;;5133804;28;20035;-91
2022/08/26 00:17:38;;;;;;;0.08;0.08;;;25.10;70.80;;;;;;5138075;27;20023;-91
2022/08/26 00:20:06;;;;;;;0.00;0.00;;;25.20;71.60;;;;;;5138362;27;20458;-91
2022/08/26 00:22:32;;;;;;;0.00;0.00;;;25.20;71.50;;;;;;5138369;27;20027;-91
2022/08/26 00:24:58;;;;;;;0.17;0.10;;;25.10;71.50;;;;;;5138111;27;20034;-91
2022/08/26 00:27:23;;;;;;;0.08;0.08;;;25.20;71.10;;;;;;5138237;27;20377;-91
2022/08/26 00:29:52;;;;;;;0.00;0.00;;;25.10;70.00;;;;;;5138021;27;20031;-91
2022/08/26 00:32:18;;;;;;;0.20;0.20;;;25.10;71.50;;;;;;5117732;28;20457;-91
2022/08/26 00:34:44;;;;;;;0.10;0.10;;;25.10;71.30;;;;;;5117404;28;20033;-90
2022/08/26 00:37:09;;;;;;;0.20;0.20;;;25.10;71.90;;;;;;5117445;28;20141;-90
2022/08/26 00:39:35;;;;;;;0.00;0.00;;;25.10;71.00;;;;;;5117692;28;20058;-91
2022/08/26 00:42:01;;;;;;;0.00;0.00;;;25.10;71.20;;;;;;5117252;28;20131;-91
2022/08/26 00:44:27;;;;;;;0.50;0.15;;;25.10;71.10;;;;;;5117425;28;20030;-91
2022/08/26 00:46:58;;;;;;;0.00;0.00;;;25.10;71.20;;;;;;5117275;28;20024;-90
2022/08/26 00:49:43;;;;;;;1.17;0.63;;;25.10;71.30;;;;;;5117148;28;20032;-91
2022/08/26 00:52:13;;;;;;;0.00;0.00;;;25.10;70.40;;;;;;5127325;27;20026;-90
2022/08/26 00:54:45;;;;;;;0.00;0.00;;;25.10;71.60;;;;;;5137711;27;20055;-91
2022/08/26 00:57:14;;;;;;;0.28;0.28;;;25.10;71.70;;;;;;5137639;27;20031;-91
2022/08/26 00:59:42;;;;;;;0.28;0.28;;;25.10;71.50;;;;;;5137533;27;20034;-91
2022/08/26 01:02:08;;;;;;;0.28;0.28;;;25.10;71.90;;;;;;5137200;27;20027;-91
2022/08/26 01:04:37;;;;;;;0.00;0.00;;;25.10;71.90;;;;;;5137439;27;20488;-91
2022/08/26 01:07:04;;;;;;;0.00;0.00;;;25.10;71.70;;;;;;5137297;27;20058;-91
2022/08/26 01:09:31;;;;;;;0.00;0.00;;;25.00;71.70;;;;;;5137451;27;20031;-91
2022/08/26 01:12:00;;;;;;;0.10;0.10;;;25.00;71.00;;;;;;5137419;27;20016;-91
2022/08/26 01:14:31;;;;;;;0.00;0.00;;;25.00;71.30;;;;;;5138417;27;20109;-91
2022/08/26 01:16:57;;;;;;;0.00;0.00;;;25.00;71.10;;;;;;5137195;27;20068;-90
2022/08/26 01:19:51;;;;;;;1.55;0.52;;;25.00;70.20;;;;;;5137098;27;20031;-91
2022/08/26 01:22:22;;;;;;;0.00;0.00;;;25.00;71.00;;;;;;5133709;27;20058;-90
2022/08/26 01:24:48;;;;;;;0.00;0.00;;;25.00;70.50;;;;;;5138167;27;20031;-91
2022/08/26 01:27:17;;;;;;;0.20;0.15;;;25.00;70.60;;;;;;5137914;27;20405;-91
2022/08/26 01:29:46;;;;;;;0.00;0.00;;;25.00;70.40;;;;;;5136913;27;20015;-91
2022/08/26 01:32:16;;;;;;;0.00;0.00;;;25.00;71.40;;;;;;5137075;27;20062;-90
2022/08/26 01:34:44;;;;;;;0.00;0.00;;;25.00;71.10;;;;;;5137027;27;20445;-92
2022/08/26 01:37:19;;;;;;;0.00;0.00;;;25.00;71.20;;;;;;5136881;27;20114;-93
2022/08/26 01:39:48;;;;;;;0.00;0.00;;;25.00;71.30;;;;;;5136874;27;20057;-91
2022/08/26 01:42:15;;;;;;;0.00;0.00;;;25.00;71.30;;;;;;5136522;27;20047;-91
2022/08/26 01:44:49;;;;;;;0.20;0.20;;;25.00;71.10;;;;;;5136609;27;20035;-92
2022/08/26 01:47:16;;;;;;;0.00;0.00;;;24.90;71.00;;;;;;5136683;27;20023;-92
2022/08/26 01:49:44;;;;;;;0.00;0.00;;;25.00;70.10;;;;;;5136536;27;20023;-91
2022/08/26 01:52:18;;;;;;;0.00;0.00;;;24.90;70.50;;;;;;5136705;27;20027;-92
2022/08/26 01:54:44;;;;;;;0.00;0.00;;;24.90;70.70;;;;;;5137376;27;20120;-92
2022/08/26 01:57:09;;;;;;;0.35;0.20;;;24.90;70.80;;;;;;5136459;27;20477;-91
2022/08/26 01:59:35;;;;;;;0.00;0.00;;;24.90;70.60;;;;;;5136441;27;20057;-91
2022/08/26 02:02:01;;;;;;;0.00;0.00;;;24.90;70.50;;;;;;5136364;27;20473;-91
2022/08/26 02:04:35;;;;;;;0.00;0.00;;;24.90;70.50;;;;;;5136301;27;20034;-91
2022/08/26 02:07:07;;;;;;;0.47;0.47;;;24.90;70.90;;;;;;5136324;27;20019;-92
2022/08/26 02:09:37;;;;;;;0.00;0.00;;;24.90;70.60;;;;;;5136263;27;20469;-91
2022/08/26 02:12:04;;;;;;;0.43;0.43;;;24.90;70.70;;;;;;5136199;27;20068;-92
2022/08/26 02:14:35;;;;;;;0.00;0.00;;;24.90;70.80;;;;;;5136462;27;20469;-91
2022/08/26 02:17:02;;;;;;;0.10;0.10;;;24.90;70.70;;;;;;5136217;27;20080;-91
2022/08/26 02:19:34;;;;;;;0.52;0.52;;;24.90;71.00;;;;;;5136082;27;20091;-92
2022/08/26 02:22:04;;;;;;;0.30;0.30;;;24.90;70.30;;;;;;5136082;27;20031;-91
2022/08/26 02:24:56;;;;;;;0.00;0.00;;;24.90;71.20;;;;;;5136238;27;20027;-91
2022/08/26 02:27:29;;;;;;;0.38;0.38;;;24.90;71.80;;;;;;5135839;27;20027;-91
2022/08/26 02:30:01;;;;;;;0.00;0.00;;;24.90;71.00;;;;;;5135836;27;20023;-91
2022/08/26 02:32:27;;;;;;;0.00;0.00;;;24.80;70.70;;;;;;5135715;27;20067;-91
2022/08/26 02:34:53;;;;;;;0.10;0.10;;;24.80;71.20;;;;;;5135806;27;20106;-92
2022/08/26 02:37:18;;;;;;;0.05;0.05;;;24.80;70.60;;;;;;5135582;27;20027;-92
2022/08/26 02:39:44;;;;;;;0.20;0.17;;;24.80;70.80;;;;;;5135576;27;20028;-92
2022/08/26 02:42:10;;;;;;;0.00;0.00;;;24.80;70.90;;;;;;5135440;27;20511;-91
2022/08/26 02:44:36;;;;;;;0.05;0.05;;;24.80;71.00;;;;;;5135460;27;20027;-92
2022/08/26 02:47:02;;;;;;;0.10;0.10;;;24.80;70.90;;;;;;5135584;27;20110;-91
2022/08/26 02:49:29;;;;;;;0.63;0.30;;;24.80;71.10;;;;;;5135417;27;20491;-91
2022/08/26 02:51:55;;;;;;;0.00;0.00;;;24.80;71.40;;;;;;5135339;27;20023;-92
2022/08/26 02:54:21;;;;;;;0.00;0.00;;;24.80;71.70;;;;;;5135306;27;20023;-91
2022/08/26 02:56:47;;;;;;;0.30;0.30;;;24.80;71.10;;;;;;5135366;27;20030;-91
2022/08/26 02:59:14;;;;;;;0.10;0.10;;;24.80;71.10;;;;;;5135450;27;20027;-91
2022/08/26 03:01:40;;;;;;;0.00;0.00;;;24.80;71.60;;;;;;5135193;27;20030;-91
2022/08/26 03:04:08;;;;;;;0.30;0.30;;;24.80;71.70;;;;;;5135160;27;20080;-91
2022/08/26 03:06:34;;;;;;;0.00;0.00;;;24.80;71.40;;;;;;5135034;27;20027;-91
2022/08/26 03:09:00;;;;;;;0.65;0.20;;;24.80;71.20;;;;;;5135047;27;20027;-92
2022/08/26 03:11:26;;;;;;;0.15;0.10;;;24.80;71.30;;;;;;5135101;27;20090;-91
2022/08/26 03:13:52;;;;;;;0.00;0.00;;;24.70;71.10;;;;;;5135046;27;20023;-91
2022/08/26 03:16:18;;;;;;;0.00;0.00;;;24.70;71.50;;;;;;5134870;27;20026;-91
2022/08/26 03:18:44;;;;;;;0.00;0.00;;;24.70;71.80;;;;;;5134889;27;20024;-91
2022/08/26 03:21:13;;;;;;;0.20;0.20;;;24.70;71.70;;;;;;5134725;27;20031;-91
2022/08/26 03:23:41;;;;;;;0.00;0.00;;;24.70;72.10;;;;;;5134848;27;20464;-91
2022/08/26 03:26:10;;;;;;;0.00;0.00;;;24.70;71.60;;;;;;5134880;27;20058;-91
2022/08/26 03:30:38;;;;;;;0.00;0.00;;;24.70;71.10;;;;;;5134594;27;20461;-91
2022/08/26 03:31:22;;;;;;;0.00;0.00;;;24.70;71.90;;;;;;5135796;27;20020;-92
2022/08/26 03:33:47;;;;;;;0.20;0.20;;;24.70;72.30;;;;;;5134573;27;20384;-91
2022/08/26 03:36:14;;;;;;;0.00;0.00;;;24.70;72.10;;;;;;5134580;27;20019;-91
2022/08/26 03:38:39;;;;;;;0.00;0.00;;;24.70;71.60;;;;;;5134593;27;20023;-91
2022/08/26 03:41:07;;;;;;;0.10;0.10;;;24.70;71.80;;;;;;5134604;27;20045;-92
2022/08/26 03:43:32;;;;;;;0.00;0.00;;;24.60;72.60;;;;;;5134497;27;20082;-92
2022/08/26 03:45:58;;;;;;;0.28;0.28;;;24.70;71.90;;;;;;5134710;27;20028;-92
2022/08/26 03:48:23;;;;;;;0.00;0.00;;;24.70;71.80;;;;;;5134598;27;20019;-92
2022/08/26 03:50:49;;;;;;;0.00;0.00;;;24.60;71.50;;;;;;5134051;27;20539;-91
2022/08/26 03:53:15;;;;;;;0.20;0.20;;;24.60;72.70;;;;;;5134339;27;20354;-92
2022/08/26 03:55:41;;;;;;;0.00;0.00;;;24.70;72.20;;;;;;5135430;27;20351;-91
2022/08/26 03:58:06;;;;;;;0.25;0.25;;;24.60;72.50;;;;;;5134469;27;20489;-91
2022/08/26 04:00:32;;;;;;;0.00;0.00;;;24.60;72.90;;;;;;5134341;28;20084;-92
2022/08/26 04:02:58;;;;;;;0.03;0.03;;;24.60;73.00;;;;;;5135518;28;20047;-83
2022/08/26 04:05:24;;;;;;;0.10;0.10;;;24.60;72.20;;;;;;5131913;28;20430;-82
2022/08/26 04:07:50;;;;;;;0.20;0.20;;;24.60;69.20;;;;;;5133332;28;20023;-78
2022/08/26 04:10:20;;;;;;;0.77;0.77;;;24.50;67.60;;;;;;5132437;28;20080;-78
2022/08/26 04:12:47;;;;;;;0.35;0.35;;;24.30;68.40;;;;;;5134835;28;20016;-78
2022/08/26 04:15:14;;;;;;;0.40;0.35;;;24.20;67.90;;;;;;5133035;28;20542;-79
2022/08/26 04:17:40;;;;;;;0.32;0.32;;;24.00;68.00;;;;;;5134503;27;20023;-79
2022/08/26 04:20:06;;;;;;;1.85;1.13;;;23.90;68.70;;;;;;5133181;28;20492;-78
2022/08/26 04:22:33;;;;;;;0.63;0.63;;;23.80;69.00;;;;;;5134700;28;20023;-79
2022/08/26 04:24:58;;;;;;;0.10;0.10;;;23.70;69.00;;;;;;5134302;28;20035;-78
2022/08/26 04:27:24;;;;;;;0.32;0.32;;;23.60;69.30;;;;;;5133958;28;20377;-78
2022/08/26 04:29:50;;;;;;;6.93;0.45;;;23.50;69.20;;;;;;5132552;28;20392;-78
2022/08/26 04:32:16;;;;;;;1.17;1.08;;;23.40;68.70;;;;;;5133017;28;20019;-78
2022/08/26 04:34:42;;;;;;;0.10;0.10;;;23.40;69.90;;;;;;5134292;28;20031;-77
2022/08/26 04:37:08;;;;;;;0.28;0.28;;;23.30;69.20;;;;;;5132591;28;20024;-77
2022/08/26 04:39:34;;;;;;;0.10;0.10;;;23.30;69.60;;;;;;5134314;27;20457;-77
2022/08/26 04:42:00;;;;;;;0.10;0.10;;;23.20;69.50;;;;;;5134559;28;20130;-77
2022/08/26 04:44:28;;;;;;;0.20;0.20;;;23.20;69.50;;;;;;5133840;28;20400;-78
2022/08/26 04:46:55;;;;;;;0.10;0.10;;;23.20;69.40;;;;;;5132264;28;20080;-79
2022/08/26 04:49:21;;;;;;;1.95;0.22;;;23.10;69.90;;;;;;5132414;28;20024;-78
2022/08/26 04:51:47;;;;;;;0.60;0.60;;;23.10;69.70;;;;;;5134223;28;20358;-77
2022/08/26 04:54:14;;;;;;;0.57;0.57;;;23.10;69.30;;;;;;5130570;28;20092;-78
2022/08/26 04:56:42;;;;;;;0.57;0.55;;;23.10;69.70;;;;;;5132178;28;20042;-78
2022/08/26 04:59:11;;;;;;;0.00;0.00;;;23.10;69.30;;;;;;5133955;28;20491;-78
2022/08/26 05:01:41;;;;;;;;;;;23.10;68.80;;;;;;5133251;27;20472;-77
2022/08/26 05:04:06;;;;;;;0.00;0.00;;;23.10;69.80;;;;;;5137007;27;19908;-81
2022/08/26 05:06:32;;;;;;;0.00;0.00;;;23.10;68.80;;;;;;5136517;27;20479;-79
2022/08/26 05:08:58;;;;;;;0.00;0.00;;;23.10;69.30;;;;;;5137783;27;20015;-80
2022/08/26 05:11:23;;;;;;;0.00;0.00;;;23.10;68.60;;;;;;5137686;27;20023;-80
2022/08/26 05:13:49;;;;;;;0.32;0.32;;;23.20;68.50;;;;;;5137966;27;20027;-79
2022/08/26 05:16:15;;;;;;;0.15;0.15;;;23.20;68.90;;;;;;5137488;27;20026;-79
2022/08/26 05:18:43;;;;;;;0.65;0.65;;;23.20;69.30;;;;;;5137204;27;20038;-80
2022/08/26 05:21:17;;;;;;;0.00;0.00;;;23.20;68.40;;;;;;5137388;27;20376;-80
2022/08/26 05:23:42;;;;;;;0.00;0.00;;;23.20;69.00;;;;;;5136046;27;20023;-80
2022/08/26 05:26:08;;;;;;;0.57;0.43;;;23.20;69.00;;;;;;5136104;27;20019;-80
2022/08/26 05:28:34;;;;;;;0.00;0.00;;;23.20;68.70;;;;;;5136014;27;20023;-79
2022/08/26 05:31:00;;;;;;;0.17;0.17;;;23.20;68.80;;;;;;5137288;27;20106;-80
2022/08/26 05:33:26;;;;;;;0.85;0.57;;;23.30;69.20;;;;;;5137060;27;20055;-79
2022/08/26 05:35:51;;;;;;;0.00;0.00;;;23.30;69.40;;;;;;5137370;27;20026;-80
2022/08/26 05:38:20;;;;;;;0.60;0.60;;;23.30;69.70;;;;;;5137167;27;20492;-79
2022/08/26 05:40:49;;;;;;;0.82;0.82;;;23.30;69.50;;;;;;5135797;27;20377;-79
2022/08/26 05:43:15;;;;;;;0.00;0.00;;;23.30;69.60;;;;;;5136696;27;20039;-80
2022/08/26 05:45:49;;;;;;;0.88;0.32;;;23.30;69.80;;;;;;5135705;27;20028;-80
2022/08/26 05:48:17;;;;;;;0.05;0.05;;;23.40;69.30;;;;;;5136925;27;20085;-79
2022/08/26 05:50:48;;;;;;;0.28;0.28;;;23.40;69.30;;;;;;5137025;27;20026;-80
2022/08/26 05:53:16;;;;;;;0.43;0.43;;;23.40;69.60;;;;;;5135661;27;20015;-80
2022/08/26 05:55:51;;;;;;;0.00;0.00;;;23.40;68.60;;;;;;5135687;27;20038;-79
2022/08/26 05:58:21;;;;;;;0.00;0.00;;;23.50;68.70;;;;;;5135431;27;20020;-80
2022/08/26 06:01:22;;;;;;;0.00;0.00;;;23.50;69.30;;;;;;5136730;27;20439;-78
2022/08/26 06:03:53;;;;;;;0.38;0.20;;;23.50;69.90;;;;;;5136077;27;20031;-78
2022/08/26 06:06:34;;;;;;;0.30;0.30;;;23.50;69.70;;;;;;5136619;27;20546;-78
2022/08/26 06:09:01;;;;;;;0.13;0.13;;;23.50;69.20;;;;;;5135246;27;20026;-78
2022/08/26 06:11:29;;;;;;;0.03;0.03;;;23.60;68.80;;;;;;5136481;27;20016;-78
2022/08/26 06:13:57;;;;;;;0.00;0.00;;;23.50;69.20;;;;;;5136185;27;20023;-78
2022/08/26 06:16:24;;;;;;;0.20;0.20;;;23.60;69.20;;;;;;5136520;27;20023;-78
2022/08/26 06:18:51;;;;;;;0.15;0.03;;;23.60;69.60;;;;;;5136492;27;20023;-78
2022/08/26 06:21:18;;;;;;;0.20;0.08;;;23.60;69.10;;;;;;5136288;27;20048;-78
2022/08/26 06:26:31;;;;;;;0.00;0.00;;;23.60;69.20;;;;;;5136622;27;20042;-78
2022/08/26 06:28:57;;;;;;;0.52;0.32;;;23.70;68.80;;;;;;5136139;27;20051;-78
2022/08/26 06:31:24;;;;;;;0.75;0.20;;;23.70;68.80;;;;;;5136261;27;20069;-78
2022/08/26 06:33:50;;;;;;;0.40;0.40;;;23.70;69.20;;;;;;5135870;27;20501;-78
2022/08/26 06:36:21;;;;;;;0.00;0.00;;;23.70;69.30;;;;;;5134719;27;20457;-78
2022/08/26 06:38:48;;;;;;;0.08;0.08;;;23.70;69.60;;;;;;5135902;27;20466;-78
2022/08/26 06:41:14;;;;;;;0.00;0.00;;;23.70;69.70;;;;;;5135819;27;20102;-79
2022/08/26 06:43:40;;;;;;;0.00;0.00;;;23.70;69.70;;;;;;5135325;27;20047;-79
2022/08/26 06:46:09;;;;;;;0.85;0.30;;;23.80;69.80;;;;;;5134496;27;20062;-79
2022/08/26 06:48:35;;;;;;;0.55;0.30;;;23.80;69.50;;;;;;5134395;27;20043;-79
2022/08/26 06:51:17;;;;;;;0.00;0.00;;;23.80;69.80;;;;;;5135731;27;20027;-78
2022/08/26 06:53:45;;;;;;;0.00;0.00;;;23.90;70.10;;;;;;5135612;27;20019;-79
2022/08/26 06:56:12;;;;;;;0.00;0.00;;;23.90;69.60;;;;;;5135693;27;20369;-79
2022/08/26 06:58:39;;;;;;;0.00;0.00;;;23.90;69.60;;;;;;5135597;27;20027;-79
2022/08/26 07:01:14;;;;;;;0.00;0.00;;;23.90;69.60;;;;;;5135447;27;20023;-79
2022/08/26 07:03:40;;;;;;;0.00;0.00;;;23.90;69.90;;;;;;5135522;27;20031;-78
2022/08/26 07:06:06;;;;;;;0.00;0.00;;;24.00;69.80;;;;;;5135567;27;20018;-79
2022/08/26 07:08:32;;;;;;;0.00;0.00;;;24.00;69.70;;;;;;5134052;27;20023;-79
2022/08/26 07:10:58;;;;;;;0.00;0.00;;;24.00;69.70;;;;;;5135438;27;20026;-93
2022/08/26 07:13:23;;;;;;;0.00;0.00;;;24.00;69.40;;;;;;5136379;27;20048;-91
2022/08/26 07:15:49;;;;;;;0.20;0.20;;;24.00;69.30;;;;;;5135076;27;20023;-92
2022/08/26 07:18:16;;;;;;;0.10;0.10;;;24.00;69.30;;;;;;5136066;27;20019;-91
2022/08/26 07:20:42;;;;;;;0.00;0.00;;;24.00;69.50;;;;;;5134816;27;20042;-92
2022/08/26 07:23:09;;;;;;;0.10;0.10;;;24.10;69.40;;;;;;5136369;27;20019;-94
2022/08/26 07:25:41;;;;;;;0.00;0.00;;;24.10;69.40;;;;;;5136072;27;20024;-92
2022/08/26 07:28:07;;;;;;;0.13;0.13;;;24.10;68.70;;;;;;5136175;27;20102;-93
2022/08/26 07:30:38;;;;;;;0.00;0.00;;;24.10;69.10;;;;;;5135782;27;20094;-92
2022/08/26 07:33:04;;;;;;;0.10;0.10;;;24.10;68.70;;;;;;5136103;27;20047;-93
2022/08/26 07:35:29;;;;;;;0.00;0.00;;;24.10;68.90;;;;;;5136069;27;20031;-92
2022/08/26 07:37:55;;;;;;;0.00;0.00;;;24.10;69.00;;;;;;5134787;27;20071;-91
2022/08/26 07:40:22;;;;;;;0.00;0.00;;;24.10;69.40;;;;;;5134519;27;20042;-92
2022/08/26 07:42:48;;;;;;;0.10;0.00;;;24.10;69.70;;;;;;5135397;27;20042;-92
2022/08/26 07:45:14;;;;;;;0.00;0.00;;;24.10;69.70;;;;;;5135500;27;20031;-91
2022/08/26 07:47:41;;;;;;;0.00;0.00;;;24.20;70.00;;;;;;5135536;27;20500;-92
2022/08/26 07:50:07;;;;;;;0.17;0.10;;;24.20;70.30;;;;;;5134526;27;20023;-92
2022/08/26 07:52:33;;;;;;;0.00;0.00;;;24.20;70.20;;;;;;5134376;27;20023;-92
2022/08/26 07:55:00;;;;;;;0.00;0.00;;;24.20;70.10;;;;;;5134567;27;20423;-91
2022/08/26 07:57:27;;;;;;;0.00;0.00;;;24.20;69.80;;;;;;5134836;27;20057;-86
2022/08/26 07:59:53;;;;;;;1.17;0.32;;;24.30;70.10;;;;;;5134716;27;20027;-85
2022/08/26 08:02:19;;;;;;;0.22;0.22;;;24.30;70.50;;;;;;5134621;27;20071;-86
2022/08/26 08:04:45;;;;;;;0.00;0.00;;;24.30;70.30;;;;;;5133366;28;20039;-86
2022/08/26 08:07:11;;;;;;;0.38;0.32;;;24.30;70.50;;;;;;5134701;27;20414;-86
2022/08/26 08:09:37;;;;;;;0.30;0.20;;;24.30;70.40;;;;;;5134644;27;20028;-86
2022/08/26 08:12:03;;;;;;;0.00;0.00;;;24.30;70.60;;;;;;5134875;28;20461;-86
2022/08/26 08:14:29;;;;;;;0.00;0.00;;;24.30;70.70;;;;;;5134702;27;20023;-86
2022/08/26 08:16:55;;;;;;;0.00;0.00;;;24.40;70.70;;;;;;5133622;28;20027;-87
2022/08/26 08:19:22;;;;;;;0.00;0.00;;;24.40;71.40;;;;;;5134479;27;20050;-86
2022/08/26 08:21:48;;;;;;;0.00;0.00;;;24.40;70.80;;;;;;5134593;28;20047;-86
2022/08/26 08:24:14;;;;;;;1.05;0.45;;;24.50;70.50;;;;;;5134603;28;20452;-87
2022/08/26 08:26:40;;;;;;;0.00;0.00;;;24.50;69.90;;;;;;5134505;27;20035;-86
2022/08/26 08:29:07;;;;;;;0.10;0.10;;;24.50;69.90;;;;;;5133210;27;20030;-86
2022/08/26 08:31:34;;;;;;;0.10;0.10;;;24.60;70.00;;;;;;5134601;27;20394;-86
2022/08/26 08:34:00;;;;;;;0.10;0.10;;;24.60;69.80;;;;;;5133469;27;20541;-86
2022/08/26 08:36:25;;;;;;;0.15;0.15;;;24.60;69.70;;;;;;5133340;27;20027;-86
2022/08/26 08:38:51;;;;;;;0.00;0.00;;;24.60;70.00;;;;;;5138489;27;20027;-88
2022/08/26 08:41:33;;;;;;;0.00;0.00;;;24.70;70.00;;;;;;5138904;27;20027;-88
2022/08/26 08:44:00;;;;;;;0.00;0.00;;;24.70;68.50;;;;;;5137319;27;20043;-85
2022/08/26 08:46:26;;;;;;;1.25;0.20;;;24.80;69.80;;;;;;5138273;27;20063;-86
2022/08/26 08:48:55;;;;;;;0.13;0.13;;;24.80;69.20;;;;;;5138322;27;20019;-86
2022/08/26 08:51:38;;;;;;;0.20;0.20;;;24.90;69.20;;;;;;5137018;27;20016;-86
2022/08/26 08:54:05;;;;;;;0.00;0.00;;;25.00;69.00;;;;;;5137242;27;20385;-86
2022/08/26 08:56:37;;;;;;;0.17;0.17;;;25.00;67.60;;;;;;5136772;27;20023;-85
2022/08/26 08:59:23;;;;;;;0.00;0.00;;;25.00;67.50;;;;;;5136858;27;20499;-88
2022/08/26 09:02:01;;;;;;;0.35;0.35;;;25.00;67.70;;;;;;5138081;27;20023;-85
2022/08/26 09:04:26;;;;;;;0.45;0.45;;;25.10;68.50;;;;;;5136923;27;20027;-86
2022/08/26 09:06:56;;;;;;;0.90;0.82;;;25.20;68.50;;;;;;5136848;27;20030;-86
2022/08/26 09:09:36;;;;;;;0.00;0.00;;;25.20;67.40;;;;;;5136845;27;20366;-93
2022/08/26 09:12:06;;;;;;;0.03;0.03;;;25.20;66.90;;;;;;5136604;27;20027;-86
2022/08/26 09:14:31;;;;;;;0.43;0.43;;;25.20;68.50;;;;;;5138281;27;20031;-88
2022/08/26 09:17:09;;;;;;;0.00;0.00;;;25.20;67.30;;;;;;5136986;27;20381;-87
2022/08/26 09:19:46;;;;;;;0.00;0.00;;;25.20;65.00;;;;;;5137878;27;20419;-86
2022/08/26 09:22:30;;;;;;;0.00;0.00;;;25.30;66.60;;;;;;5136152;27;20418;-85
2022/08/26 09:24:57;;;;;;;0.00;0.00;;;25.30;68.40;;;;;;5137416;27;20458;-86
2022/08/26 09:27:40;;;;;;;0.10;0.10;;;25.30;68.90;;;;;;5137715;27;20025;-85
2022/08/26 09:30:08;;;;;;;0.00;0.00;;;25.30;69.20;;;;;;5137363;27;20477;-85
2022/08/26 09:32:34;;;;;;;0.00;0.00;;;25.40;69.20;;;;;;5136129;27;20034;-85
2022/08/26 09:35:46;;;;;;;0.00;0.00;;;25.40;68.60;;;;;;5137379;27;20027;-87
2022/08/26 09:38:24;;;;;;;0.00;0.00;;;25.40;67.80;;;;;;5057601;28;20428;-90
2022/08/26 09:41:00;;;;;;;1.97;0.73;;;25.40;66.50;;;;;;5131041;27;20087;-93
2022/08/26 09:43:27;;;;;;;0.80;0.65;;;25.50;64.80;;;;;;5136843;27;20039;-85
2022/08/26 09:46:11;;;;;;;0.35;0.35;;;25.50;66.30;;;;;;5135796;27;20034;-85
2022/08/26 09:48:38;;;;;;;0.03;0.00;;;25.50;67.00;;;;;;5135097;27;20416;-85
2022/08/26 09:51:22;;;;;;;0.32;0.32;;;25.60;67.20;;;;;;5135785;27;20369;-84
2022/08/26 09:53:53;;;;;;;0.38;0.38;;;25.60;63.50;;;;;;5137032;27;20079;-85
2022/08/26 09:56:48;;;;;;;0.00;0.00;;;25.60;64.80;;;;;;5136940;27;20019;-85
2022/08/26 09:59:29;;;;;;;0.32;0.32;;;25.70;65.70;;;;;;5122423;27;20035;-84
2022/08/26 10:02:14;;;;;;;0.00;0.00;;;25.70;64.80;;;;;;5135707;27;20099;-84
2022/08/26 10:04:47;;;;;;;0.80;0.47;;;25.70;63.20;;;;;;5135355;27;20187;-85
2022/08/26 10:07:13;;;;;;;0.40;0.22;;;25.80;64.10;;;;;;5136711;27;20094;-84
2022/08/26 10:09:42;;;;;;;0.20;0.20;;;25.80;65.30;;;;;;5135276;27;20099;-84
2022/08/26 10:12:18;;;;;;;1.13;0.30;;;25.80;65.60;;;;;;5135451;27;20033;-84
2022/08/26 10:14:55;;;;;;;0.00;0.00;;;25.80;66.00;;;;;;5135122;27;20362;-85
2022/08/26 10:17:40;;;;;;;0.00;0.00;;;25.80;66.80;;;;;;5136517;27;20097;-84
2022/08/26 10:20:17;;;;;;;0.00;0.00;;;25.80;67.10;;;;;;5136673;27;20365;-85
2022/08/26 10:22:58;;;;;;;0.38;0.20;;;25.80;67.10;;;;;;5135257;27;20485;-84
2022/08/26 10:25:29;;;;;;;0.00;0.00;;;25.80;67.40;;;;;;5134748;27;20431;-85
2022/08/26 10:28:20;;;;;;;0.00;0.00;;;25.80;67.70;;;;;;5136278;27;20022;-85
2022/08/26 10:30:51;;;;;;;0.00;0.00;;;25.80;68.00;;;;;;5134957;27;20056;-85
2022/08/26 10:33:17;;;;;;;0.00;0.00;;;25.80;67.30;;;;;;5136179;27;20019;-90
2022/08/26 10:35:51;;;;;;;0.28;0.28;;;25.80;67.20;;;;;;5136471;27;20488;-84
2022/08/26 10:38:27;;;;;;;0.00;0.00;;;25.80;66.90;;;;;;5134814;27;20054;-84
2022/08/26 10:41:01;;;;;;;0.55;0.52;;;25.80;67.10;;;;;;5134771;27;20029;-86
2022/08/26 10:43:33;;;;;;;0.00;0.00;;;25.80;66.20;;;;;;5134053;27;20047;-84
2022/08/26 10:46:13;;;;;;;0.30;0.10;;;25.90;67.20;;;;;;5135836;27;20027;-86
2022/08/26 10:48:50;;;;;;;0.00;0.00;;;25.90;66.70;;;;;;5136160;27;20133;-86
2022/08/26 10:51:21;;;;;;;0.00;0.00;;;25.90;67.00;;;;;;5135750;27;20019;-81
2022/08/26 10:53:50;;;;;;;0.00;0.00;;;25.90;66.10;;;;;;5135967;27;20047;-82
2022/08/26 10:56:45;;;;;;;0.00;0.00;;;25.90;67.30;;;;;;5135808;27;20053;-82
2022/08/26 10:59:35;;;;;;;0.00;0.00;;;25.90;67.30;;;;;;5132201;27;20397;-81
2022/08/26 11:02:17;;;;;;;0.60;0.60;;;25.90;67.60;;;;;;5133558;27;20179;-81
2022/08/26 11:04:58;;;;;;;0.00;0.00;;;25.90;67.30;;;;;;5134085;27;20023;-81
2022/08/26 11:07:36;;;;;;;0.10;0.10;;;25.90;67.50;;;;;;5135478;27;20019;-81
2022/08/26 11:10:07;;;;;;;0.00;0.00;;;25.90;67.20;;;;;;5135338;27;20023;-81
2022/08/26 11:12:36;;;;;;;0.00;0.00;;;25.90;67.80;;;;;;5135289;27;20016;-80
2022/08/26 11:15:05;;;;;;;0.00;0.00;;;26.00;67.90;;;;;;5135231;27;20023;-81
2022/08/26 11:17:43;;;;;;;0.00;0.00;;;26.00;67.50;;;;;;5133967;27;20027;-81
2022/08/26 11:20:10;;;;;;;3.30;0.80;;;26.00;68.20;;;;;;5135177;27;20023;-82
2022/08/26 11:22:37;;;;;;;0.00;0.00;;;26.00;67.80;;;;;;5135383;27;20051;-83
2022/08/26 11:25:29;;;;;;;0.00;0.00;;;26.00;68.80;;;;;;5135021;27;20422;-82
2022/08/26 11:27:58;;;;;;;0.10;0.10;;;26.10;68.00;;;;;;5132292;27;20027;-82
2022/08/26 11:30:24;;;;;;;0.10;0.10;;;26.10;68.10;;;;;;5133726;27;20507;-82
2022/08/26 11:32:56;;;;;;;0.00;0.00;;;26.10;68.00;;;;;;5133884;27;20034;-82
2022/08/26 11:35:23;;;;;;;0.00;0.00;;;26.10;68.00;;;;;;5133662;27;20030;-83
2022/08/26 11:38:11;;;;;;;0.00;0.00;;;26.10;68.50;;;;;;5133603;27;20092;-82
2022/08/26 11:40:37;;;;;;;0.00;0.00;;;26.10;68.20;;;;;;5134863;27;20446;-82
2022/08/26 11:43:24;;;;;;;0.00;0.00;;;26.20;68.50;;;;;;5133290;27;20039;-82
2022/08/26 11:46:02;;;;;;;0.17;0.10;;;26.20;67.40;;;;;;5134775;27;20031;-82
2022/08/26 11:48:41;;;;;;;0.10;0.00;;;26.20;68.10;;;;;;5134668;27;20023;-82
2022/08/26 11:51:19;;;;;;;0.20;0.10;;;26.20;67.70;;;;;;5133467;27;20020;-82
2022/08/26 11:53:45;;;;;;;0.00;0.00;;;26.20;67.50;;;;;;5134848;27;20263;-81
2022/08/26 11:56:33;;;;;;;0.15;0.05;;;26.20;67.30;;;;;;5134831;27;20031;-83
2022/08/26 11:59:02;;;;;;;0.00;0.00;;;26.20;66.60;;;;;;5133356;27;20019;-83
2022/08/26 12:01:31;;;;;;;0.00;0.00;;;26.20;67.50;;;;;;5134725;27;20026;-82
2022/08/26 12:03:59;;;;;;;0.00;0.00;;;26.10;66.70;;;;;;5134509;28;20034;-82
2022/08/26 12:06:54;;;;;;;0.00;0.00;;;26.20;67.50;;;;;;5133208;28;20030;-82
2022/08/26 12:09:25;;;;;;;0.00;0.00;;;26.10;67.20;;;;;;5121387;27;20043;-82
2022/08/26 12:11:52;;;;;;;0.00;0.00;;;26.10;67.20;;;;;;5135326;27;20388;-82
2022/08/26 12:14:24;;;;;;;0.00;0.00;;;26.10;66.80;;;;;;5138769;27;20026;-82
2022/08/26 12:16:52;;;;;;;0.00;0.00;;;26.10;65.90;;;;;;5137468;27;20030;-82
2022/08/26 12:19:24;;;;;;;0.00;0.00;;;26.10;66.50;;;;;;5138660;27;20057;-82
2022/08/26 12:22:14;;;;;;;0.00;0.00;;;26.10;66.80;;;;;;5137312;27;20029;-82
2022/08/26 12:24:48;;;;;;;0.00;0.00;;;26.10;66.30;;;;;;5129935;27;20043;-82
2022/08/26 12:27:20;;;;;;;0.15;0.10;;;26.10;66.30;;;;;;5138547;27;20035;-83
2022/08/26 12:30:09;;;;;;;0.05;0.05;;;26.10;66.60;;;;;;5138819;27;20023;-82
2022/08/26 12:32:39;;;;;;;0.00;0.00;;;26.00;66.10;;;;;;5138762;27;20022;-82
2022/08/26 12:35:13;;;;;;;0.00;0.00;;;26.00;67.90;;;;;;5138378;27;20469;-82
2022/08/26 12:37:41;;;;;;;0.00;0.00;;;26.00;67.80;;;;;;5138452;27;20111;-82
2022/08/26 12:40:30;;;;;;;0.00;0.00;;;25.90;68.00;;;;;;5137032;27;20377;-82
2022/08/26 12:42:59;;;;;;;1.38;0.32;;;26.00;68.80;;;;;;5137996;27;20396;-82
2022/08/26 12:45:40;;;;;;;0.00;0.00;;;25.90;68.00;;;;;;5136168;27;20024;-80
2022/08/26 12:48:28;;;;;;;0.00;0.00;;;25.90;69.30;;;;;;5137095;27;20019;-87
2022/08/26 12:50:54;;;;;;;3.30;1.45;;;26.00;68.00;;;;;;5136998;27;20083;-86
2022/08/26 12:53:32;;;;;;;6.55;3.38;;;25.90;67.00;;;;;;5137080;27;20057;-82
2022/08/26 12:56:03;;;;;;;10.45;3.83;;;26.00;69.00;;;;;;5137351;27;20030;-84
2022/08/26 12:58:30;;;;;;;4.10;3.70;;;26.00;68.90;;;;;;5138069;27;20080;-84
2022/08/26 13:01:17;;;;;;;4.05;3.13;;;26.10;69.30;;;;;;5135220;27;20030;-83
2022/08/26 13:03:45;;;;;;;2.70;2.05;;;26.10;67.40;;;;;;5125027;27;20027;-94
2022/08/26 13:06:12;;;;;;;1.17;1.02;;;26.10;68.40;;;;;;5117704;28;20064;-93